New Orleans Nas Jrb/Alvin Callender Field/ Airport
KNBG : rendu visible

Aérodrome :











RETROUVEZ-NOUS SUR...

 
LOGIN :

S'inscrire | Disclaimer

   EN    FR    IT 

 









Légende :    VFR   VFR Marginal   IFR   IFR Intensif   IFR Très Intensif
Visi : 
Plafond : 
>= 8 km
>= 3000ft
5 à 8 km
1000 à 3000 ft
1500m à 5 km
500 à 1000 ft
800 à 1500m
200 à 500 ft
< 800m
< 200 ft
Symboles :   Orages  Brouillard  Fortes neiges  Fortes précipitations  Vent > 20 kt






- Altitude de l'aérodrome : 2 ft


KNBG - New Orleans Nas Jrb/Alvin Callender Field/

DERNIER METAR :
  • 311408Z 06013KT 10SM FEW034 SCT250 28/21 A3010 RMK AO2 T02780206 $

METARs EXPIRÉS :
  • 311355Z AUTO 05011KT 10SM CLR 27/21 A3010 RMK AO2 SLP190 T02720206 $
  • 311255Z AUTO 06007KT 10SM CLR 27/22 A3007 RMK AO2 SLP182 T02670222 $

TAF TAF KNBG
Valide du 30 à 23h jusqu'au 31 à 23h UTC


3023/3123 13007KT 9999 SCT030 SCT120 BKN250 QNH2994INS
TEMPO 3023/3101 VRB25G35KT 1600 TSRA BR BKN015CB BKN030 OVC090
BECMG 3301/3103 VRB04KT 9999 NSW SCT030 BKN100 BKN250 QNH3000INS
BECMG 3104/3106 35006KT 9999 SCT020 SCT040 BKN100 BKN250 QNH2997INS
BECMG 3108/3110 02010KT 9999 SCT040 SCT120 BKN250 QNH3001INS
BECMG 3115/3117 08010KT 9999 SCT060 BKN120 BKN250 QNH3001INS AUTOMATED SENSOR METWATCH 3100 TIL 3113 T23/3112Z T32/3119Z FN00200
FIR KZHU / Amérique du Nord



MET'MAP, la Météo Aéronautique d'un coup d'oeil ! - Copyright ORBIFLY Décembre 2007 - Disclaimer

ORBIFLY MET'MAP TEAM :

Programmation & Développement : Alexandra Zaïnal
Sur une idée originale de : Baudouin d'Aumeries
Assistance à la programmation : Marc-Olivier Méhu
Soutien technique & logistique : Manuel Goepfert

Contact : metmap@orbifly.com




SOURCES & CREDITS :

   NOAA       Earth
Advisory